Time;durP1;ratioP1;P1;durP2;ratioP2;P2;SDS_P1;SDS_P2;PMS_P1;PMS_P2;Temp;Humidity;BMP_temperature;BMP_pressure;BME280_temperature;BME280_humidity;BME280_pressure;Samples;Min_cycle;Max_cycle;Signal;HPM_P1;HPM_P2
2024/01/30 00:01:11;;;;;;;4.87;4.20;;;21.00;53.40;;;;;;5092503;28;20194;-69
2024/01/30 00:03:36;;;;;;;3.93;3.53;;;21.00;53.50;;;;;;5092883;28;20177;-69
2024/01/30 00:06:03;;;;;;;6.53;3.80;;;21.00;53.50;;;;;;5074429;28;20181;-69
2024/01/30 00:08:29;;;;;;;4.50;4.00;;;21.00;53.50;;;;;;5092692;28;20755;-69
2024/01/30 00:10:55;;;;;;;5.00;4.07;;;21.00;53.50;;;;;;5092462;28;20431;-69
2024/01/30 00:13:20;;;;;;;4.10;3.70;;;21.00;53.50;;;;;;5092513;28;20170;-70
2024/01/30 00:15:46;;;;;;;4.57;4.17;;;21.00;53.50;;;;;;5091940;28;20209;-69
2024/01/30 00:18:12;;;;;;;4.87;4.20;;;20.90;53.40;;;;;;5092265;28;20194;-69
2024/01/30 00:20:37;;;;;;;4.40;4.00;;;20.90;53.40;;;;;;5074171;28;20208;-69
2024/01/30 00:23:03;;;;;;;4.63;3.93;;;21.00;53.50;;;;;;5074088;28;20177;-69
2024/01/30 00:25:29;;;;;;;5.07;4.03;;;20.90;53.40;;;;;;5092304;28;20184;-69
2024/01/30 00:27:54;;;;;;;4.23;3.70;;;20.90;53.40;;;;;;5092399;28;20197;-69
2024/01/30 00:30:20;;;;;;;4.67;4.20;;;20.90;53.40;;;;;;5091955;28;20201;-69
2024/01/30 00:32:46;;;;;;;4.70;3.77;;;20.90;53.40;;;;;;5092143;28;20185;-70
2024/01/30 00:35:12;;;;;;;5.10;4.40;;;20.90;53.40;;;;;;5092071;28;20457;-69
2024/01/30 00:37:37;;;;;;;4.20;3.80;;;20.90;53.40;;;;;;5074003;28;20198;-69
2024/01/30 00:40:03;;;;;;;5.47;4.20;;;20.90;53.40;;;;;;5091755;28;20200;-69
2024/01/30 00:42:29;;;;;;;5.07;3.83;;;20.90;53.40;;;;;;5092140;28;20174;-69
2024/01/30 00:44:55;;;;;;;4.50;4.10;;;21.00;53.50;;;;;;5092367;28;20412;-69
2024/01/30 00:47:20;;;;;;;4.03;3.50;;;20.90;53.50;;;;;;5091762;28;20620;-69
2024/01/30 00:49:46;;;;;;;6.80;4.57;;;20.90;53.40;;;;;;5091679;28;20197;-67
2024/01/30 00:52:11;;;;;;;4.20;3.70;;;20.90;53.40;;;;;;5091627;28;20197;-70
2024/01/30 00:54:37;;;;;;;4.43;3.80;;;20.90;53.40;;;;;;5091288;28;20644;-69
2024/01/30 00:57:03;;;;;;;4.20;3.80;;;20.90;53.40;;;;;;5091647;28;20266;-69
2024/01/30 00:59:29;;;;;;;4.03;3.63;;;21.00;53.50;;;;;;5091335;28;20736;-69
2024/01/30 01:01:54;;;;;;;3.57;3.27;;;20.90;53.40;;;;;;5091634;28;20407;-70
2024/01/30 01:04:21;;;;;;;4.13;3.73;;;20.90;53.50;;;;;;5091461;28;20215;-67
2024/01/30 01:06:47;;;;;;;4.70;3.47;;;20.90;53.40;;;;;;5091500;28;20557;-69
2024/01/30 01:09:13;;;;;;;5.43;4.17;;;20.90;53.50;;;;;;5091579;28;20404;-68
2024/01/30 01:11:38;;;;;;;5.90;4.03;;;20.90;53.40;;;;;;5091361;28;20439;-69
2024/01/30 01:14:04;;;;;;;4.63;4.20;;;20.90;53.50;;;;;;5091449;28;20212;-69
2024/01/30 01:16:30;;;;;;;4.77;3.73;;;20.90;53.50;;;;;;5072657;28;20216;-70
2024/01/30 01:18:56;;;;;;;4.20;3.47;;;20.90;53.50;;;;;;5090574;28;20420;-69
2024/01/30 01:21:21;;;;;;;4.40;3.63;;;20.90;53.50;;;;;;5090293;28;20687;-68
2024/01/30 01:23:47;;;;;;;4.03;3.63;;;20.90;53.50;;;;;;5090388;28;20181;-69
2024/01/30 01:26:13;;;;;;;4.40;4.00;;;20.90;53.50;;;;;;5090331;28;20174;-69
2024/01/30 01:28:42;;;;;;;4.43;3.87;;;20.90;53.50;;;;;;5090437;28;20728;-68
2024/01/30 01:31:08;;;;;;;3.80;3.43;;;20.90;53.50;;;;;;5090123;28;20197;-69
2024/01/30 01:33:34;;;;;;;3.80;3.30;;;20.90;53.50;;;;;;5090143;28;21016;-69
2024/01/30 01:36:02;;;;;;;4.13;3.20;;;20.90;53.50;;;;;;5090215;28;20280;-69
2024/01/30 01:38:28;;;;;;;4.30;3.37;;;20.90;53.50;;;;;;5090296;28;20404;-69
2024/01/30 01:40:53;;;;;;;4.57;3.60;;;20.90;53.50;;;;;;5090026;28;20430;-70
2024/01/30 01:43:19;;;;;;;3.90;3.60;;;20.90;53.50;;;;;;5090158;28;20166;-69
2024/01/30 01:45:45;;;;;;;3.40;3.07;;;20.90;53.50;;;;;;5090041;28;20537;-68
2024/01/30 01:48:12;;;;;;;4.63;4.03;;;20.90;53.50;;;;;;5090182;28;20176;-68
2024/01/30 01:50:38;;;;;;;5.10;3.90;;;20.80;53.40;;;;;;5090114;28;20866;-68
2024/01/30 01:53:07;;;;;;;4.03;3.53;;;20.90;53.50;;;;;;5090008;28;20457;-70
2024/01/30 01:55:34;;;;;;;4.57;3.90;;;20.80;53.40;;;;;;5089681;28;20447;-69
2024/01/30 01:58:00;;;;;;;3.43;3.13;;;20.80;53.40;;;;;;5090103;28;20414;-70
2024/01/30 02:00:25;;;;;;;5.00;4.20;;;20.80;53.40;;;;;;5071801;28;20519;-69
2024/01/30 02:02:54;;;;;;;4.97;4.57;;;20.90;53.50;;;;;;5090039;28;20178;-69
2024/01/30 02:05:20;;;;;;;5.60;3.63;;;20.80;53.40;;;;;;5088416;28;20255;-69
2024/01/30 02:07:46;;;;;;;3.70;3.40;;;20.80;53.40;;;;;;5089784;28;20757;-69
2024/01/30 02:10:12;;;;;;;4.00;3.50;;;20.80;53.40;;;;;;5089653;28;20457;-69
2024/01/30 02:12:38;;;;;;;4.60;3.90;;;20.80;53.50;;;;;;5089856;28;20185;-68
2024/01/30 02:15:04;;;;;;;3.70;3.40;;;20.80;53.40;;;;;;5071456;28;20173;-69
2024/01/30 02:17:30;;;;;;;4.13;3.83;;;20.80;53.40;;;;;;5047946;28;1215244;-69
2024/01/30 02:19:56;;;;;;;3.60;3.30;;;20.80;53.40;;;;;;5090319;28;20247;-69
2024/01/30 02:22:22;;;;;;;4.30;3.60;;;20.80;53.40;;;;;;5090692;28;20169;-68
2024/01/30 02:24:48;;;;;;;6.73;4.07;;;20.80;53.40;;;;;;5090284;28;20219;-69
2024/01/30 02:27:14;;;;;;;3.87;3.40;;;20.80;53.40;;;;;;5090382;28;20423;-69
2024/01/30 02:29:39;;;;;;;3.97;3.50;;;20.80;53.40;;;;;;5090259;28;20177;-69
2024/01/30 02:32:06;;;;;;;3.73;3.10;;;20.80;53.50;;;;;;5072357;28;20217;-69
2024/01/30 02:34:31;;;;;;;4.07;3.70;;;20.80;53.50;;;;;;5072049;28;20246;-69
2024/01/30 02:36:57;;;;;;;4.30;3.57;;;20.80;53.50;;;;;;5072116;28;20455;-69
2024/01/30 02:39:23;;;;;;;3.23;2.60;;;20.80;53.40;;;;;;5072238;28;20177;-70
2024/01/30 02:41:48;;;;;;;5.20;3.73;;;20.80;53.50;;;;;;5072092;28;20196;-69
2024/01/30 02:44:14;;;;;;;4.37;3.80;;;20.80;53.40;;;;;;5090306;28;20178;-69
2024/01/30 02:46:39;;;;;;;3.20;2.90;;;20.80;53.40;;;;;;5090483;28;20227;-70
2024/01/30 02:49:05;;;;;;;5.60;3.83;;;20.80;53.50;;;;;;5090222;28;20569;-70
2024/01/30 02:51:31;;;;;;;3.50;3.20;;;20.80;53.40;;;;;;5090264;28;20276;-70
2024/01/30 02:53:56;;;;;;;5.17;3.30;;;20.80;53.40;;;;;;5090175;28;20178;-70
2024/01/30 02:56:22;;;;;;;3.50;3.20;;;20.80;53.40;;;;;;5090123;28;20201;-70
2024/01/30 02:58:47;;;;;;;3.57;3.27;;;20.80;53.50;;;;;;5090064;28;20546;-70
2024/01/30 03:01:13;;;;;;;3.50;3.07;;;20.80;53.50;;;;;;5089835;28;20193;-70
2024/01/30 03:03:40;;;;;;;3.43;3.13;;;20.80;53.50;;;;;;5090049;28;20232;-69
2024/01/30 03:06:06;;;;;;;3.90;3.60;;;20.80;53.50;;;;;;5090132;28;20639;-70
2024/01/30 03:08:32;;;;;;;4.50;4.10;;;20.80;53.40;;;;;;5090241;28;20415;-69
2024/01/30 03:10:58;;;;;;;3.60;3.30;;;20.80;53.40;;;;;;5089935;28;20427;-70
2024/01/30 03:13:24;;;;;;;4.73;3.70;;;20.80;53.50;;;;;;5089990;28;20185;-69
2024/01/30 03:15:50;;;;;;;3.67;3.37;;;20.80;53.40;;;;;;5089858;28;20354;-70
2024/01/30 03:18:16;;;;;;;3.10;2.80;;;20.80;53.40;;;;;;5093628;28;20506;-69
2024/01/30 03:20:41;;;;;;;3.90;3.47;;;20.80;53.50;;;;;;5093665;28;20331;-70
2024/01/30 03:23:07;;;;;;;4.07;3.67;;;20.80;53.40;;;;;;5093448;28;20173;-70
2024/01/30 03:25:33;;;;;;;3.80;3.20;;;20.80;53.40;;;;;;5075239;28;20185;-70
2024/01/30 03:27:58;;;;;;;3.87;3.13;;;20.80;53.50;;;;;;5093412;28;20184;-70
2024/01/30 03:30:24;;;;;;;4.07;3.67;;;20.80;53.50;;;;;;5093242;28;20559;-70
2024/01/30 03:32:50;;;;;;;3.53;3.17;;;20.80;53.50;;;;;;5093198;28;20303;-70
2024/01/30 03:35:15;;;;;;;3.73;3.33;;;20.80;53.50;;;;;;5093283;28;20180;-70
2024/01/30 03:37:41;;;;;;;3.67;3.20;;;20.80;53.50;;;;;;5093271;28;20415;-70
2024/01/30 03:40:07;;;;;;;3.13;2.83;;;20.80;53.50;;;;;;5093029;28;20205;-70
2024/01/30 03:42:33;;;;;;;3.70;3.40;;;20.80;53.50;;;;;;5093075;28;20184;-70
2024/01/30 03:44:58;;;;;;;4.93;3.77;;;20.80;53.50;;;;;;5074725;28;20424;-70
2024/01/30 03:47:24;;;;;;;4.20;3.50;;;20.80;54.00;;;;;;5092875;28;20181;-68
2024/01/30 03:49:49;;;;;;;3.30;2.90;;;20.80;53.50;;;;;;5093050;28;20200;-70
2024/01/30 03:52:15;;;;;;;3.97;3.03;;;20.80;53.50;;;;;;5092804;28;20174;-70
2024/01/30 03:54:41;;;;;;;2.87;2.63;;;20.80;53.40;;;;;;5093043;28;20181;-69
2024/01/30 03:57:06;;;;;;;3.50;3.20;;;20.80;53.40;;;;;;5092612;28;20277;-69
2024/01/30 03:59:32;;;;;;;3.67;3.30;;;20.80;53.40;;;;;;5092819;28;20588;-70
2024/01/30 04:01:57;;;;;;;3.90;3.30;;;20.80;53.40;;;;;;5092969;28;20173;-70
2024/01/30 04:04:23;;;;;;;5.00;3.33;;;20.80;53.40;;;;;;5092605;28;20223;-69
2024/01/30 04:06:49;;;;;;;3.73;3.43;;;20.80;53.40;;;;;;5092603;28;20216;-70
2024/01/30 04:09:15;;;;;;;3.40;3.10;;;20.80;53.40;;;;;;5092814;28;20182;-70
2024/01/30 04:11:41;;;;;;;3.37;3.07;;;20.80;53.40;;;;;;5092388;28;20193;-70
2024/01/30 04:14:08;;;;;;;4.33;3.30;;;20.80;53.40;;;;;;5092750;28;20182;-70
2024/01/30 04:16:34;;;;;;;3.23;2.80;;;20.80;53.40;;;;;;5092188;28;20459;-70
2024/01/30 04:18:59;;;;;;;3.40;3.20;;;20.80;53.40;;;;;;5092420;28;20415;-70
2024/01/30 04:21:25;;;;;;;2.83;2.63;;;20.80;53.40;;;;;;5092133;28;20194;-70
2024/01/30 04:23:53;;;;;;;3.30;3.00;;;20.80;53.40;;;;;;5092459;28;20268;-70
2024/01/30 04:26:19;;;;;;;3.03;2.80;;;20.80;53.40;;;;;;5092277;28;20648;-69
2024/01/30 04:28:45;;;;;;;3.80;2.97;;;20.80;53.40;;;;;;5091089;28;20407;-70
2024/01/30 04:31:11;;;;;;;3.30;3.00;;;20.80;53.40;;;;;;5091963;28;20813;-70
2024/01/30 04:33:37;;;;;;;3.50;3.20;;;20.80;53.40;;;;;;5092022;28;20509;-69
2024/01/30 04:36:03;;;;;;;3.17;2.87;;;20.70;53.30;;;;;;5073586;28;20209;-69
2024/01/30 04:38:29;;;;;;;4.40;3.73;;;20.80;53.40;;;;;;5091875;28;20182;-69
2024/01/30 04:40:54;;;;;;;2.90;2.60;;;20.80;53.40;;;;;;5073455;28;20576;-70
2024/01/30 04:43:20;;;;;;;3.50;3.10;;;20.80;53.40;;;;;;5091870;28;20246;-70
2024/01/30 04:45:46;;;;;;;3.63;2.80;;;20.80;53.40;;;;;;5091640;28;20170;-70
2024/01/30 04:48:11;;;;;;;3.00;2.77;;;20.80;53.40;;;;;;5091833;28;20177;-70
2024/01/30 04:50:37;;;;;;;3.47;3.17;;;20.70;53.30;;;;;;5091630;28;20254;-70
2024/01/30 04:53:02;;;;;;;3.73;3.00;;;20.80;53.50;;;;;;5091538;28;20550;-70
2024/01/30 04:55:28;;;;;;;5.23;3.47;;;20.70;53.30;;;;;;5091539;28;20193;-69
2024/01/30 04:57:54;;;;;;;3.50;2.77;;;20.80;53.40;;;;;;5091525;28;20176;-70
2024/01/30 05:00:19;;;;;;;5.00;3.10;;;20.70;53.40;;;;;;5091686;28;20280;-70
2024/01/30 05:02:45;;;;;;;4.27;3.20;;;20.70;53.40;;;;;;5073274;28;20169;-70
2024/01/30 05:05:11;;;;;;;2.53;2.33;;;20.70;53.40;;;;;;5073222;28;20184;-70
2024/01/30 05:07:36;;;;;;;4.13;3.73;;;20.70;53.40;;;;;;5073261;28;20652;-70
2024/01/30 05:10:03;;;;;;;2.60;2.40;;;20.80;53.50;;;;;;5091449;28;20193;-70
2024/01/30 05:12:28;;;;;;;2.93;2.70;;;20.80;53.40;;;;;;5091482;28;20165;-70
2024/01/30 05:14:54;;;;;;;3.10;2.80;;;20.70;53.30;;;;;;5073149;28;20410;-70
2024/01/30 05:17:20;;;;;;;3.73;2.97;;;20.80;53.40;;;;;;5072982;28;20208;-70
2024/01/30 05:19:45;;;;;;;2.23;2.00;;;20.80;53.40;;;;;;5073075;28;20166;-70
2024/01/30 05:22:15;;;;;;;2.67;2.47;;;20.80;53.40;;;;;;5091178;28;20174;-70
2024/01/30 05:24:44;;;;;;;4.00;3.60;;;20.80;53.40;;;;;;5091002;28;20535;-70
2024/01/30 05:27:09;;;;;;;2.60;2.40;;;20.80;53.40;;;;;;5090959;28;20466;-70
2024/01/30 05:29:35;;;;;;;3.10;2.70;;;20.80;53.40;;;;;;5091194;28;20826;-70
2024/01/30 05:32:01;;;;;;;3.37;2.73;;;20.80;53.40;;;;;;5091047;28;20273;-70
2024/01/30 05:34:26;;;;;;;3.20;2.90;;;20.80;53.30;;;;;;5072830;28;20190;-69
2024/01/30 05:36:52;;;;;;;3.13;2.83;;;20.80;53.30;;;;;;5090786;28;20204;-70
2024/01/30 05:39:17;;;;;;;3.17;2.70;;;20.80;53.30;;;;;;5090670;28;20208;-70
2024/01/30 05:41:43;;;;;;;3.20;2.73;;;20.80;53.30;;;;;;5090668;28;20194;-70
2024/01/30 05:44:09;;;;;;;3.50;2.60;;;20.80;53.30;;;;;;5090753;28;20578;-70
2024/01/30 05:46:35;;;;;;;2.93;2.63;;;20.80;53.30;;;;;;5090871;28;20170;-70
2024/01/30 05:49:01;;;;;;;3.83;3.53;;;20.80;53.30;;;;;;5090710;28;20923;-70
2024/01/30 05:51:27;;;;;;;2.60;2.40;;;20.80;53.30;;;;;;5090652;28;20427;-70
2024/01/30 05:53:54;;;;;;;3.40;3.10;;;20.80;53.30;;;;;;5091048;28;20193;-69
2024/01/30 05:56:19;;;;;;;3.63;3.33;;;20.80;53.30;;;;;;5090905;28;20977;-70
2024/01/30 05:58:45;;;;;;;3.07;2.77;;;20.80;53.30;;;;;;5090690;28;20414;-69
2024/01/30 06:01:10;;;;;;;3.00;2.70;;;20.80;53.30;;;;;;5090509;28;20692;-70
2024/01/30 06:03:36;;;;;;;3.57;2.77;;;20.80;53.30;;;;;;5090331;28;20177;-68
2024/01/30 06:06:02;;;;;;;3.23;2.93;;;20.80;53.30;;;;;;5090548;28;20173;-67
2024/01/30 06:08:28;;;;;;;4.97;3.40;;;20.80;53.30;;;;;;5090502;28;20898;-70
2024/01/30 06:10:54;;;;;;;3.13;2.80;;;20.80;53.30;;;;;;5090515;28;20229;-69
2024/01/30 06:13:20;;;;;;;2.83;2.63;;;20.80;53.30;;;;;;5090627;28;20177;-71
2024/01/30 06:15:45;;;;;;;3.17;2.80;;;20.80;53.30;;;;;;5090249;28;20688;-70
2024/01/30 06:18:11;;;;;;;2.87;2.50;;;20.80;53.30;;;;;;5090518;28;20169;-70
2024/01/30 06:20:36;;;;;;;2.80;2.53;;;20.80;53.30;;;;;;5090268;28;20277;-69
2024/01/30 06:23:02;;;;;;;3.70;2.70;;;20.80;53.30;;;;;;5090250;28;20221;-69
2024/01/30 06:25:28;;;;;;;3.20;2.73;;;20.80;53.30;;;;;;5090192;28;20177;-69
2024/01/30 06:27:53;;;;;;;3.50;2.77;;;20.80;53.30;;;;;;5090318;28;20173;-69
2024/01/30 06:30:19;;;;;;;2.97;2.67;;;20.80;53.40;;;;;;5090324;28;20205;-68
2024/01/30 06:32:45;;;;;;;3.20;2.70;;;20.90;53.40;;;;;;5090398;28;20178;-69
2024/01/30 06:35:10;;;;;;;3.17;2.50;;;20.90;53.40;;;;;;5090411;28;20177;-70
2024/01/30 06:37:36;;;;;;;3.57;2.90;;;20.90;53.40;;;;;;5090212;28;20580;-70
2024/01/30 06:40:04;;;;;;;2.70;2.50;;;21.00;53.50;;;;;;5090003;28;20197;-69
2024/01/30 06:42:30;;;;;;;3.10;2.80;;;21.00;53.50;;;;;;5090010;28;20463;-69
2024/01/30 06:44:55;;;;;;;3.20;2.90;;;21.00;53.40;;;;;;5090167;28;20407;-70
2024/01/30 06:47:21;;;;;;;3.37;3.07;;;21.00;53.40;;;;;;5089923;28;20177;-70
2024/01/30 06:49:46;;;;;;;2.43;2.23;;;21.00;53.40;;;;;;5089925;28;21858;-67
2024/01/30 06:52:12;;;;;;;4.80;3.33;;;21.10;53.40;;;;;;5092883;28;20177;-70
2024/01/30 06:54:38;;;;;;;2.90;2.60;;;21.00;53.30;;;;;;5093895;28;20248;-70
2024/01/30 06:57:04;;;;;;;2.30;2.10;;;21.10;53.40;;;;;;5093770;28;20192;-70
2024/01/30 06:59:29;;;;;;;2.83;2.63;;;21.10;53.30;;;;;;5093912;28;20546;-69
2024/01/30 07:01:55;;;;;;;2.83;2.53;;;21.10;53.30;;;;;;5093688;28;20177;-70
2024/01/30 07:04:20;;;;;;;3.40;2.73;;;21.10;53.30;;;;;;5093658;28;20201;-69
2024/01/30 07:06:46;;;;;;;3.97;3.07;;;21.10;53.30;;;;;;5093880;28;20173;-68
2024/01/30 07:09:12;;;;;;;3.20;2.43;;;21.10;53.30;;;;;;5093707;28;20170;-69
2024/01/30 07:11:37;;;;;;;2.80;2.50;;;21.10;53.30;;;;;;5093518;28;20250;-70
2024/01/30 07:14:06;;;;;;;5.40;3.07;;;21.20;53.30;;;;;;5093906;28;20762;-68
2024/01/30 07:16:31;;;;;;;3.10;2.80;;;21.20;53.30;;;;;;5093184;28;20201;-69
2024/01/30 07:18:57;;;;;;;2.80;2.60;;;21.20;53.30;;;;;;5093398;28;20407;-69
2024/01/30 07:21:27;;;;;;;3.40;2.90;;;21.20;53.30;;;;;;5093351;28;20199;-70
2024/01/30 07:23:56;;;;;;;3.00;2.70;;;21.20;53.30;;;;;;5093374;28;20181;-69
2024/01/30 07:26:22;;;;;;;3.37;2.77;;;21.20;53.30;;;;;;5093333;28;20490;-70
2024/01/30 07:28:47;;;;;;;2.50;2.17;;;21.20;53.30;;;;;;5093296;28;20487;-70
2024/01/30 07:31:13;;;;;;;2.63;2.43;;;21.20;53.20;;;;;;5093497;28;20194;-70
2024/01/30 07:33:39;;;;;;;3.60;2.97;;;21.20;53.20;;;;;;5093136;28;20418;-69
2024/01/30 07:36:05;;;;;;;3.20;2.70;;;21.20;53.20;;;;;;5093371;28;20345;-70
2024/01/30 07:38:33;;;;;;;2.77;2.33;;;21.20;53.20;;;;;;5093278;28;20169;-69
2024/01/30 07:40:59;;;;;;;2.80;2.50;;;21.20;53.20;;;;;;5092765;28;20431;-70
2024/01/30 07:43:25;;;;;;;3.17;2.60;;;21.20;53.20;;;;;;5093049;28;20402;-70
2024/01/30 07:45:50;;;;;;;2.90;2.60;;;21.20;53.20;;;;;;5093079;28;20185;-70
2024/01/30 07:48:16;;;;;;;4.40;2.70;;;21.20;53.20;;;;;;5092891;28;20174;-70
2024/01/30 07:50:42;;;;;;;2.87;2.60;;;21.20;53.20;;;;;;5092893;28;20223;-70
2024/01/30 07:53:07;;;;;;;2.70;2.50;;;21.20;53.30;;;;;;5092718;28;20169;-69
2024/01/30 07:55:33;;;;;;;2.70;2.50;;;21.20;53.20;;;;;;5092759;28;20190;-70
2024/01/30 07:57:59;;;;;;;2.73;2.43;;;21.20;53.20;;;;;;5092870;28;20660;-69
2024/01/30 08:00:24;;;;;;;2.93;2.73;;;21.20;53.20;;;;;;5092953;28;20273;-71
2024/01/30 08:02:50;;;;;;;2.90;2.60;;;21.20;53.20;;;;;;5074289;28;20173;-70
2024/01/30 08:05:16;;;;;;;3.37;2.70;;;21.20;53.20;;;;;;5092646;28;20166;-70
2024/01/30 08:07:45;;;;;;;3.10;2.57;;;21.20;53.20;;;;;;5074336;28;20169;-70
2024/01/30 08:10:12;;;;;;;3.70;2.87;;;21.20;53.20;;;;;;5092366;28;20672;-70
2024/01/30 08:12:38;;;;;;;3.10;2.80;;;21.20;53.20;;;;;;5092311;28;20479;-69
2024/01/30 08:15:05;;;;;;;4.40;2.87;;;21.20;53.20;;;;;;5092430;28;20494;-69
2024/01/30 08:17:30;;;;;;;2.97;2.67;;;21.20;53.20;;;;;;5092149;28;20212;-69
2024/01/30 08:19:56;;;;;;;2.90;2.40;;;21.30;53.30;;;;;;5092126;28;20431;-69
2024/01/30 08:22:22;;;;;;;2.70;2.50;;;21.30;53.30;;;;;;5092030;28;20192;-70
2024/01/30 08:24:47;;;;;;;2.70;2.30;;;21.30;53.30;;;;;;5092115;28;20636;-68
2024/01/30 08:27:13;;;;;;;3.30;2.77;;;21.30;53.30;;;;;;5092028;28;20177;-70
2024/01/30 08:29:38;;;;;;;4.13;2.67;;;21.30;53.30;;;;;;5091940;28;20212;-70
2024/01/30 08:32:06;;;;;;;3.10;2.80;;;21.30;53.30;;;;;;5092275;28;20255;-70
2024/01/30 08:34:32;;;;;;;4.20;2.93;;;21.30;53.30;;;;;;5091904;28;20169;-68
2024/01/30 08:36:57;;;;;;;2.90;2.53;;;21.30;53.30;;;;;;5091745;28;20459;-70
2024/01/30 08:39:23;;;;;;;3.97;3.10;;;21.30;53.30;;;;;;5091864;28;20868;-70
2024/01/30 08:41:49;;;;;;;2.47;2.27;;;21.30;53.30;;;;;;5091694;28;20217;-70
2024/01/30 08:44:14;;;;;;;4.00;2.70;;;21.30;53.30;;;;;;5091927;28;20173;-70
2024/01/30 08:46:40;;;;;;;2.50;2.30;;;21.30;53.30;;;;;;5091558;28;20270;-70
2024/01/30 08:49:05;;;;;;;5.63;2.77;;;21.30;53.30;;;;;;5091788;28;20185;-69
2024/01/30 08:51:31;;;;;;;3.97;2.33;;;21.30;53.30;;;;;;5091964;28;20276;-69
2024/01/30 08:53:57;;;;;;;4.93;2.50;;;21.30;53.30;;;;;;5091532;28;20648;-69
2024/01/30 08:56:22;;;;;;;3.87;2.73;;;21.30;53.40;;;;;;5091397;28;20204;-69
2024/01/30 08:58:48;;;;;;;3.80;2.70;;;21.30;53.40;;;;;;5091623;28;20174;-69
2024/01/30 09:01:14;;;;;;;3.70;2.73;;;21.30;53.40;;;;;;5091673;28;20186;-69
2024/01/30 09:03:40;;;;;;;3.50;3.20;;;21.30;53.40;;;;;;5073311;28;20242;-69
2024/01/30 09:06:15;;;;;;;3.23;2.60;;;21.30;53.40;;;;;;5091375;28;20408;-68
2024/01/30 09:08:41;;;;;;;2.70;2.43;;;21.30;53.40;;;;;;5091487;28;20399;-69
2024/01/30 09:11:14;;;;;;;3.70;2.70;;;21.30;53.50;;;;;;5091135;28;20930;-69
2024/01/30 09:13:39;;;;;;;3.87;2.53;;;21.30;53.50;;;;;;5090591;28;20205;-70
2024/01/30 09:16:06;;;;;;;3.43;2.50;;;21.30;53.50;;;;;;5091073;28;20562;-68
2024/01/30 09:18:31;;;;;;;2.53;2.33;;;21.30;53.50;;;;;;5091058;28;20165;-69
2024/01/30 09:20:57;;;;;;;3.00;2.70;;;21.30;53.50;;;;;;5091159;28;20824;-68
2024/01/30 09:23:22;;;;;;;3.50;3.00;;;21.30;53.50;;;;;;5091241;28;20223;-68
2024/01/30 09:25:48;;;;;;;5.17;3.40;;;21.30;53.50;;;;;;5090877;28;20700;-69
2024/01/30 09:28:14;;;;;;;7.97;3.80;;;21.30;53.50;;;;;;5091622;28;20640;-68
2024/01/30 09:30:40;;;;;;;5.20;3.43;;;21.20;53.30;;;;;;5072665;28;20204;-69
2024/01/30 09:33:06;;;;;;;3.50;3.00;;;21.30;53.50;;;;;;5090765;28;20222;-69
2024/01/30 09:35:32;;;;;;;3.50;3.20;;;21.20;53.30;;;;;;5090720;28;20570;-69
2024/01/30 09:37:58;;;;;;;3.87;3.23;;;21.20;53.30;;;;;;5090756;28;20410;-69
2024/01/30 09:40:24;;;;;;;4.20;3.07;;;21.20;53.30;;;;;;5090854;28;20189;-68
2024/01/30 09:42:53;;;;;;;5.13;4.20;;;21.20;53.30;;;;;;5090673;28;20205;-69
2024/01/30 09:45:19;;;;;;;5.50;3.83;;;21.20;53.30;;;;;;5090454;28;20414;-68
2024/01/30 09:47:46;;;;;;;4.13;3.50;;;21.20;53.30;;;;;;5071362;28;20417;-69
2024/01/30 09:50:13;;;;;;;4.20;3.80;;;21.20;53.30;;;;;;5070204;28;20775;-67
2024/01/30 09:52:40;;;;;;;3.20;2.90;;;21.20;53.30;;;;;;5070451;28;20802;-69
2024/01/30 09:55:07;;;;;;;3.57;3.17;;;21.20;53.30;;;;;;5070261;28;20874;-68
2024/01/30 09:57:34;;;;;;;4.10;3.73;;;21.20;53.90;;;;;;5070166;28;20444;-68
2024/01/30 09:59:59;;;;;;;5.57;4.00;;;21.20;53.30;;;;;;5070434;28;20428;-69
2024/01/30 10:02:25;;;;;;;4.13;3.17;;;21.20;53.30;;;;;;5070415;28;20477;-69
2024/01/30 10:04:52;;;;;;;8.13;4.27;;;21.20;53.20;;;;;;5070151;28;20163;-70
2024/01/30 10:07:18;;;;;;;6.43;4.40;;;21.20;53.20;;;;;;5070457;28;20201;-70
2024/01/30 10:09:44;;;;;;;7.73;4.40;;;21.20;53.20;;;;;;5070211;28;20400;-68
2024/01/30 10:12:10;;;;;;;4.57;3.53;;;21.20;53.20;;;;;;5070054;28;20419;-69
2024/01/30 10:14:39;;;;;;;8.33;5.07;;;21.20;53.20;;;;;;5070167;28;20416;-68
2024/01/30 10:17:06;;;;;;;6.83;4.70;;;21.20;53.20;;;;;;5069879;28;20699;-67
2024/01/30 10:19:32;;;;;;;8.53;5.73;;;21.20;53.10;;;;;;5069872;28;20496;-68
2024/01/30 10:22:00;;;;;;;7.33;4.93;;;21.20;53.10;;;;;;5070003;28;20484;-68
2024/01/30 10:24:26;;;;;;;6.47;5.13;;;21.20;53.10;;;;;;5069932;28;20605;-69
2024/01/30 10:26:53;;;;;;;6.70;4.80;;;21.20;53.10;;;;;;5072131;28;20484;-70
2024/01/30 10:29:19;;;;;;;8.10;4.93;;;21.10;52.90;;;;;;5073925;28;20415;-69
2024/01/30 10:31:44;;;;;;;10.23;5.90;;;21.10;52.90;;;;;;5073861;28;20436;-70
2024/01/30 10:34:10;;;;;;;11.57;5.20;;;21.10;52.90;;;;;;5073898;28;20641;-70
2024/01/30 10:36:43;;;;;;;6.43;4.70;;;21.20;52.80;;;;;;5073791;28;20201;-70
2024/01/30 10:39:09;;;;;;;6.30;4.50;;;21.10;52.70;;;;;;5056188;28;20159;-69
2024/01/30 10:42:05;;;;;;;5.90;5.10;;;21.20;52.80;;;;;;5073764;28;20432;-69
2024/01/30 10:44:34;;;;;;;12.60;5.30;;;21.10;52.60;;;;;;5073241;28;20178;-69
2024/01/30 10:47:06;;;;;;;6.40;5.27;;;21.10;52.70;;;;;;5074224;28;20404;-70
2024/01/30 10:49:33;;;;;;;8.10;4.70;;;21.10;52.70;;;;;;5073513;28;20401;-69
2024/01/30 10:51:59;;;;;;;13.80;5.23;;;21.10;52.70;;;;;;5073518;28;20409;-69
2024/01/30 10:54:26;;;;;;;7.43;4.73;;;21.10;52.70;;;;;;5073552;28;20419;-69
2024/01/30 10:56:53;;;;;;;8.40;4.57;;;21.10;52.80;;;;;;5073402;28;20962;-70
2024/01/30 10:59:20;;;;;;;10.20;4.70;;;21.20;52.90;;;;;;5055367;28;20408;-70
2024/01/30 11:01:46;;;;;;;6.27;4.13;;;21.10;52.80;;;;;;5073258;28;20465;-70
2024/01/30 11:04:11;;;;;;;9.90;5.07;;;21.10;52.90;;;;;;5073467;28;20416;-69
2024/01/30 11:06:43;;;;;;;6.60;4.30;;;21.10;52.90;;;;;;5073251;28;20642;-69
2024/01/30 11:09:12;;;;;;;6.00;4.50;;;21.10;52.90;;;;;;5073289;28;20174;-69
2024/01/30 11:12:12;;;;;;;9.03;5.03;;;21.10;52.90;;;;;;5073071;28;20488;-69
2024/01/30 11:14:40;;;;;;;7.53;4.90;;;21.10;53.00;;;;;;5054897;28;20424;-70
2024/01/30 11:17:05;;;;;;;6.77;5.50;;;21.10;53.00;;;;;;5073008;28;20994;-69
2024/01/30 11:19:32;;;;;;;9.40;4.63;;;21.10;53.00;;;;;;5072822;28;20403;-70
2024/01/30 11:21:58;;;;;;;9.77;4.97;;;21.10;53.00;;;;;;5072954;28;20228;-69
2024/01/30 11:24:24;;;;;;;6.20;4.20;;;21.10;53.10;;;;;;5055054;28;20412;-69
2024/01/30 11:26:55;;;;;;;7.23;4.70;;;21.10;53.10;;;;;;5072883;28;20257;-70
2024/01/30 11:29:25;;;;;;;5.77;4.10;;;21.10;53.10;;;;;;5054999;28;20413;-69
2024/01/30 11:32:00;;;;;;;6.67;4.57;;;21.10;53.10;;;;;;5072798;28;20420;-69
2024/01/30 11:34:25;;;;;;;6.50;5.07;;;21.10;53.00;;;;;;5072675;28;20415;-69
2024/01/30 11:37:02;;;;;;;9.43;4.10;;;21.10;53.10;;;;;;5072211;28;20971;-69
2024/01/30 11:39:29;;;;;;;6.47;4.30;;;21.10;53.00;;;;;;5072953;28;20170;-69
2024/01/30 11:41:55;;;;;;;7.50;4.07;;;21.10;53.00;;;;;;5072608;28;20496;-69
2024/01/30 11:44:22;;;;;;;7.67;5.00;;;21.10;53.00;;;;;;5072486;28;20405;-69
2024/01/30 11:46:52;;;;;;;7.60;4.07;;;21.10;53.00;;;;;;5072614;28;20416;-69
2024/01/30 11:49:17;;;;;;;6.73;4.07;;;21.10;53.00;;;;;;5072501;28;20396;-69
2024/01/30 11:51:45;;;;;;;4.93;4.37;;;21.10;53.00;;;;;;5072271;28;20517;-69
2024/01/30 11:54:11;;;;;;;6.87;4.40;;;21.10;52.90;;;;;;5072713;28;20178;-69
2024/01/30 11:56:38;;;;;;;8.77;4.40;;;21.10;53.00;;;;;;5072361;28;20487;-69
2024/01/30 11:59:04;;;;;;;6.47;4.10;;;21.10;52.90;;;;;;5072423;28;20405;-68
2024/01/30 12:01:31;;;;;;;7.33;3.93;;;21.10;52.90;;;;;;5072285;28;20429;-69
2024/01/30 12:03:57;;;;;;;4.13;3.60;;;21.10;52.90;;;;;;5072276;28;20405;-69
2024/01/30 12:06:23;;;;;;;5.07;3.83;;;21.00;52.90;;;;;;5072294;28;20918;-69
2024/01/30 12:08:59;;;;;;;5.47;4.30;;;21.10;52.90;;;;;;5072153;28;20416;-69
2024/01/30 12:11:25;;;;;;;8.13;4.03;;;21.00;52.80;;;;;;5077945;28;20554;-69
2024/01/30 12:13:54;;;;;;;7.33;4.47;;;21.00;52.90;;;;;;5080684;28;20423;-69
2024/01/30 12:16:20;;;;;;;5.10;4.17;;;21.00;52.90;;;;;;5089793;28;20549;-69
2024/01/30 12:18:46;;;;;;;5.73;4.40;;;21.00;52.90;;;;;;5079586;28;20849;-69
2024/01/30 12:21:12;;;;;;;6.37;4.50;;;21.00;52.90;;;;;;5076978;28;20469;-70
2024/01/30 12:23:37;;;;;;;5.10;4.17;;;21.00;53.00;;;;;;5071850;28;20175;-69
2024/01/30 12:26:06;;;;;;;7.13;4.50;;;21.10;53.00;;;;;;5072047;28;20182;-69
2024/01/30 12:28:35;;;;;;;5.50;4.07;;;21.00;53.00;;;;;;5071859;28;20182;-69
2024/01/30 12:31:03;;;;;;;6.83;3.80;;;21.00;53.00;;;;;;5071813;28;20511;-69
2024/01/30 12:33:29;;;;;;;5.60;3.90;;;21.00;53.00;;;;;;5072025;28;20405;-69
2024/01/30 12:35:55;;;;;;;5.37;4.10;;;21.00;53.00;;;;;;5071693;28;20452;-69
2024/01/30 12:38:21;;;;;;;4.73;4.07;;;21.00;53.00;;;;;;5072086;28;20785;-69
2024/01/30 12:40:47;;;;;;;5.20;4.43;;;21.00;53.00;;;;;;5071607;28;20416;-67